sensor_id;sensor_type;location;lat;lon;timestamp;P1;durP1;ratioP1;P2;durP2;ratioP2
9374;SDS011;4727;51.202;6.344;2023-03-31T00:01:32;3.57;;;2.20;;
9374;SDS011;4727;51.202;6.344;2023-03-31T00:03:58;5.27;;;2.10;;
9374;SDS011;4727;51.202;6.344;2023-03-31T00:06:32;5.43;;;2.60;;
9374;SDS011;4727;51.202;6.344;2023-03-31T00:09:06;4.60;;;2.10;;
9374;SDS011;4727;51.202;6.344;2023-03-31T00:11:34;6.20;;;2.20;;
9374;SDS011;4727;51.202;6.344;2023-03-31T00:14:00;5.37;;;2.67;;
9374;SDS011;4727;51.202;6.344;2023-03-31T00:16:26;7.47;;;2.37;;
9374;SDS011;4727;51.202;6.344;2023-03-31T00:18:52;4.83;;;2.30;;
9374;SDS011;4727;51.202;6.344;2023-03-31T00:21:20;7.87;;;3.00;;
9374;SDS011;4727;51.202;6.344;2023-03-31T00:23:56;7.70;;;2.60;;
9374;SDS011;4727;51.202;6.344;2023-03-31T00:26:23;5.47;;;2.50;;
9374;SDS011;4727;51.202;6.344;2023-03-31T00:28:50;6.80;;;2.57;;
9374;SDS011;4727;51.202;6.344;2023-03-31T00:31:16;4.27;;;2.57;;
9374;SDS011;4727;51.202;6.344;2023-03-31T00:33:42;7.07;;;2.67;;
9374;SDS011;4727;51.202;6.344;2023-03-31T00:36:08;8.53;;;3.13;;
9374;SDS011;4727;51.202;6.344;2023-03-31T00:38:34;6.70;;;2.70;;
9374;SDS011;4727;51.202;6.344;2023-03-31T00:41:00;4.43;;;2.47;;
9374;SDS011;4727;51.202;6.344;2023-03-31T00:43:28;7.30;;;2.87;;
9374;SDS011;4727;51.202;6.344;2023-03-31T00:45:59;7.10;;;2.47;;
9374;SDS011;4727;51.202;6.344;2023-03-31T00:48:39;6.83;;;2.03;;
9374;SDS011;4727;51.202;6.344;2023-03-31T00:51:12;6.20;;;3.13;;
9374;SDS011;4727;51.202;6.344;2023-03-31T00:53:38;9.37;;;2.60;;
9374;SDS011;4727;51.202;6.344;2023-03-31T00:56:10;4.97;;;2.50;;
9374;SDS011;4727;51.202;6.344;2023-03-31T00:58:38;6.97;;;2.67;;
9374;SDS011;4727;51.202;6.344;2023-03-31T01:01:08;6.03;;;2.47;;
9374;SDS011;4727;51.202;6.344;2023-03-31T01:03:38;3.37;;;2.40;;
9374;SDS011;4727;51.202;6.344;2023-03-31T01:06:04;7.13;;;2.77;;
9374;SDS011;4727;51.202;6.344;2023-03-31T01:08:34;7.20;;;2.70;;
9374;SDS011;4727;51.202;6.344;2023-03-31T01:11:05;5.97;;;2.63;;
9374;SDS011;4727;51.202;6.344;2023-03-31T01:13:33;9.00;;;3.47;;
9374;SDS011;4727;51.202;6.344;2023-03-31T01:16:00;7.63;;;2.83;;
9374;SDS011;4727;51.202;6.344;2023-03-31T01:18:26;7.77;;;2.30;;
9374;SDS011;4727;51.202;6.344;2023-03-31T01:26:26;5.80;;;2.87;;
9374;SDS011;4727;51.202;6.344;2023-03-31T01:29:13;11.07;;;2.87;;
9374;SDS011;4727;51.202;6.344;2023-03-31T01:45:51;9.87;;;3.27;;
9374;SDS011;4727;51.202;6.344;2023-03-31T01:48:25;8.67;;;3.20;;
9374;SDS011;4727;51.202;6.344;2023-03-31T01:51:06;7.40;;;3.20;;
9374;SDS011;4727;51.202;6.344;2023-03-31T01:53:50;6.17;;;2.57;;
9374;SDS011;4727;51.202;6.344;2023-03-31T01:56:29;11.07;;;4.87;;
9374;SDS011;4727;51.202;6.344;2023-03-31T01:58:59;9.30;;;3.53;;
9374;SDS011;4727;51.202;6.344;2023-03-31T02:01:33;8.73;;;3.03;;
9374;SDS011;4727;51.202;6.344;2023-03-31T02:04:07;9.37;;;3.43;;
9374;SDS011;4727;51.202;6.344;2023-03-31T02:06:39;12.10;;;3.10;;
9374;SDS011;4727;51.202;6.344;2023-03-31T02:09:11;11.57;;;3.60;;
9374;SDS011;4727;51.202;6.344;2023-03-31T02:11:40;13.73;;;3.37;;
9374;SDS011;4727;51.202;6.344;2023-03-31T02:14:09;12.07;;;3.80;;
9374;SDS011;4727;51.202;6.344;2023-03-31T02:16:38;9.30;;;3.50;;
9374;SDS011;4727;51.202;6.344;2023-03-31T02:19:11;10.50;;;3.77;;
9374;SDS011;4727;51.202;6.344;2023-03-31T02:21:42;9.93;;;3.20;;
9374;SDS011;4727;51.202;6.344;2023-03-31T02:24:12;11.67;;;3.73;;
9374;SDS011;4727;51.202;6.344;2023-03-31T02:29:58;13.43;;;3.93;;
9374;SDS011;4727;51.202;6.344;2023-03-31T02:32:31;11.00;;;3.87;;
9374;SDS011;4727;51.202;6.344;2023-03-31T02:35:04;11.87;;;3.13;;
9374;SDS011;4727;51.202;6.344;2023-03-31T02:37:34;10.63;;;3.57;;
9374;SDS011;4727;51.202;6.344;2023-03-31T02:40:02;15.13;;;3.67;;
9374;SDS011;4727;51.202;6.344;2023-03-31T02:42:35;11.60;;;3.70;;
9374;SDS011;4727;51.202;6.344;2023-03-31T02:45:06;12.73;;;3.70;;
9374;SDS011;4727;51.202;6.344;2023-03-31T02:47:52;11.47;;;4.00;;
9374;SDS011;4727;51.202;6.344;2023-03-31T02:50:19;6.93;;;3.03;;
9374;SDS011;4727;51.202;6.344;2023-03-31T03:03:18;11.20;;;3.30;;
9374;SDS011;4727;51.202;6.344;2023-03-31T03:11:55;7.73;;;3.10;;
9374;SDS011;4727;51.202;6.344;2023-03-31T03:14:32;9.17;;;3.57;;
9374;SDS011;4727;51.202;6.344;2023-03-31T03:30:44;8.97;;;3.53;;
9374;SDS011;4727;51.202;6.344;2023-03-31T03:33:11;8.30;;;3.47;;
9374;SDS011;4727;51.202;6.344;2023-03-31T03:35:40;10.70;;;3.47;;
9374;SDS011;4727;51.202;6.344;2023-03-31T03:38:06;11.47;;;4.07;;
9374;SDS011;4727;51.202;6.344;2023-03-31T03:40:32;9.97;;;3.17;;
9374;SDS011;4727;51.202;6.344;2023-03-31T04:00:25;9.53;;;2.77;;
9374;SDS011;4727;51.202;6.344;2023-03-31T04:02:51;6.87;;;2.90;;
9374;SDS011;4727;51.202;6.344;2023-03-31T04:05:17;7.73;;;3.17;;
9374;SDS011;4727;51.202;6.344;2023-03-31T04:07:43;7.03;;;3.20;;
9374;SDS011;4727;51.202;6.344;2023-03-31T04:10:09;6.43;;;2.70;;
9374;SDS011;4727;51.202;6.344;2023-03-31T04:12:35;9.10;;;3.07;;
9374;SDS011;4727;51.202;6.344;2023-03-31T04:30:37;5.97;;;2.17;;
9374;SDS011;4727;51.202;6.344;2023-03-31T04:33:03;3.87;;;2.43;;
9374;SDS011;4727;51.202;6.344;2023-03-31T04:35:30;7.30;;;2.30;;
9374;SDS011;4727;51.202;6.344;2023-03-31T04:38:20;6.00;;;2.73;;
9374;SDS011;4727;51.202;6.344;2023-03-31T04:40:48;4.50;;;2.50;;
9374;SDS011;4727;51.202;6.344;2023-03-31T05:00:25;4.87;;;2.43;;
9374;SDS011;4727;51.202;6.344;2023-03-31T05:02:52;3.60;;;2.40;;
9374;SDS011;4727;51.202;6.344;2023-03-31T05:05:18;3.00;;;2.07;;
9374;SDS011;4727;51.202;6.344;2023-03-31T05:07:45;3.93;;;1.80;;
9374;SDS011;4727;51.202;6.344;2023-03-31T05:10:11;5.10;;;2.40;;
9374;SDS011;4727;51.202;6.344;2023-03-31T05:27:37;3.47;;;1.67;;
9374;SDS011;4727;51.202;6.344;2023-03-31T05:30:03;2.07;;;1.73;;
9374;SDS011;4727;51.202;6.344;2023-03-31T05:32:29;4.20;;;2.00;;
9374;SDS011;4727;51.202;6.344;2023-03-31T05:34:55;1.97;;;1.77;;
9374;SDS011;4727;51.202;6.344;2023-03-31T05:37:22;4.07;;;1.57;;
9374;SDS011;4727;51.202;6.344;2023-03-31T05:39:49;3.27;;;1.77;;
9374;SDS011;4727;51.202;6.344;2023-03-31T05:42:15;2.90;;;1.70;;
9374;SDS011;4727;51.202;6.344;2023-03-31T05:44:41;3.03;;;1.60;;
9374;SDS011;4727;51.202;6.344;2023-03-31T05:47:07;2.53;;;1.50;;
9374;SDS011;4727;51.202;6.344;2023-03-31T05:49:33;3.40;;;1.97;;
9374;SDS011;4727;51.202;6.344;2023-03-31T05:51:59;3.13;;;1.83;;
9374;SDS011;4727;51.202;6.344;2023-03-31T05:54:25;2.83;;;1.60;;
9374;SDS011;4727;51.202;6.344;2023-03-31T05:56:51;2.50;;;1.53;;
9374;SDS011;4727;51.202;6.344;2023-03-31T05:59:17;4.33;;;2.03;;
9374;SDS011;4727;51.202;6.344;2023-03-31T06:01:43;3.00;;;1.70;;
9374;SDS011;4727;51.202;6.344;2023-03-31T06:04:09;2.50;;;1.00;;
9374;SDS011;4727;51.202;6.344;2023-03-31T06:06:35;4.70;;;2.87;;
9374;SDS011;4727;51.202;6.344;2023-03-31T06:09:02;3.87;;;1.60;;
9374;SDS011;4727;51.202;6.344;2023-03-31T06:11:28;2.83;;;1.60;;
9374;SDS011;4727;51.202;6.344;2023-03-31T06:13:54;2.97;;;2.00;;
9374;SDS011;4727;51.202;6.344;2023-03-31T06:16:20;3.43;;;1.57;;
9374;SDS011;4727;51.202;6.344;2023-03-31T06:18:46;3.43;;;1.40;;
9374;SDS011;4727;51.202;6.344;2023-03-31T06:21:13;3.90;;;2.17;;
9374;SDS011;4727;51.202;6.344;2023-03-31T06:23:44;3.40;;;1.77;;
9374;SDS011;4727;51.202;6.344;2023-03-31T06:26:11;2.93;;;1.77;;
9374;SDS011;4727;51.202;6.344;2023-03-31T06:28:41;4.13;;;1.87;;
9374;SDS011;4727;51.202;6.344;2023-03-31T06:31:08;5.53;;;2.10;;
9374;SDS011;4727;51.202;6.344;2023-03-31T06:33:37;3.93;;;1.97;;
9374;SDS011;4727;51.202;6.344;2023-03-31T06:36:03;2.37;;;1.60;;
9374;SDS011;4727;51.202;6.344;2023-03-31T06:38:31;4.67;;;1.90;;
9374;SDS011;4727;51.202;6.344;2023-03-31T06:40:57;4.53;;;1.70;;
9374;SDS011;4727;51.202;6.344;2023-03-31T06:43:23;4.20;;;2.10;;
9374;SDS011;4727;51.202;6.344;2023-03-31T06:45:49;4.47;;;2.00;;
9374;SDS011;4727;51.202;6.344;2023-03-31T06:48:15;3.50;;;2.03;;
9374;SDS011;4727;51.202;6.344;2023-03-31T06:50:41;3.77;;;1.90;;
9374;SDS011;4727;51.202;6.344;2023-03-31T06:53:07;4.63;;;2.40;;
9374;SDS011;4727;51.202;6.344;2023-03-31T06:55:33;3.73;;;2.80;;
9374;SDS011;4727;51.202;6.344;2023-03-31T06:57:59;5.40;;;1.93;;
9374;SDS011;4727;51.202;6.344;2023-03-31T07:00:25;5.93;;;2.50;;
9374;SDS011;4727;51.202;6.344;2023-03-31T07:02:52;3.50;;;2.00;;
9374;SDS011;4727;51.202;6.344;2023-03-31T07:05:18;3.57;;;2.03;;
9374;SDS011;4727;51.202;6.344;2023-03-31T07:07:50;4.33;;;2.20;;
9374;SDS011;4727;51.202;6.344;2023-03-31T07:10:16;6.97;;;2.23;;
9374;SDS011;4727;51.202;6.344;2023-03-31T07:12:42;4.47;;;2.10;;
9374;SDS011;4727;51.202;6.344;2023-03-31T07:15:08;4.33;;;2.60;;
9374;SDS011;4727;51.202;6.344;2023-03-31T07:17:34;4.63;;;2.20;;
9374;SDS011;4727;51.202;6.344;2023-03-31T07:20:01;5.47;;;2.50;;
9374;SDS011;4727;51.202;6.344;2023-03-31T07:22:28;3.47;;;2.20;;
9374;SDS011;4727;51.202;6.344;2023-03-31T07:24:54;8.93;;;2.57;;
9374;SDS011;4727;51.202;6.344;2023-03-31T07:27:20;3.77;;;2.60;;
9374;SDS011;4727;51.202;6.344;2023-03-31T07:29:46;4.90;;;2.33;;
9374;SDS011;4727;51.202;6.344;2023-03-31T07:32:13;4.90;;;2.40;;
9374;SDS011;4727;51.202;6.344;2023-03-31T07:34:39;4.40;;;2.27;;
9374;SDS011;4727;51.202;6.344;2023-03-31T07:37:06;7.53;;;2.97;;
9374;SDS011;4727;51.202;6.344;2023-03-31T07:39:32;7.27;;;2.50;;
9374;SDS011;4727;51.202;6.344;2023-03-31T07:41:58;6.90;;;2.40;;
9374;SDS011;4727;51.202;6.344;2023-03-31T07:44:25;6.43;;;2.80;;
9374;SDS011;4727;51.202;6.344;2023-03-31T07:46:51;4.37;;;2.37;;
9374;SDS011;4727;51.202;6.344;2023-03-31T07:49:17;6.27;;;2.13;;
9374;SDS011;4727;51.202;6.344;2023-03-31T07:51:43;7.47;;;3.40;;
9374;SDS011;4727;51.202;6.344;2023-03-31T07:54:08;7.60;;;3.07;;
9374;SDS011;4727;51.202;6.344;2023-03-31T07:56:34;10.50;;;3.30;;
9374;SDS011;4727;51.202;6.344;2023-03-31T07:59:00;8.20;;;3.30;;
9374;SDS011;4727;51.202;6.344;2023-03-31T08:01:26;10.03;;;3.67;;
9374;SDS011;4727;51.202;6.344;2023-03-31T08:03:53;6.00;;;2.70;;
9374;SDS011;4727;51.202;6.344;2023-03-31T08:06:21;5.70;;;2.90;;
9374;SDS011;4727;51.202;6.344;2023-03-31T08:08:48;11.00;;;3.60;;
9374;SDS011;4727;51.202;6.344;2023-03-31T08:11:14;7.13;;;3.07;;
9374;SDS011;4727;51.202;6.344;2023-03-31T08:13:40;8.73;;;2.87;;
9374;SDS011;4727;51.202;6.344;2023-03-31T08:16:06;6.27;;;2.70;;
9374;SDS011;4727;51.202;6.344;2023-03-31T08:18:32;12.67;;;5.20;;
9374;SDS011;4727;51.202;6.344;2023-03-31T08:20:58;9.40;;;3.43;;
9374;SDS011;4727;51.202;6.344;2023-03-31T08:23:24;8.10;;;3.03;;
9374;SDS011;4727;51.202;6.344;2023-03-31T08:25:50;8.97;;;3.13;;
9374;SDS011;4727;51.202;6.344;2023-03-31T08:28:16;4.33;;;2.57;;
9374;SDS011;4727;51.202;6.344;2023-03-31T08:30:42;8.57;;;3.10;;
9374;SDS011;4727;51.202;6.344;2023-03-31T08:33:08;10.67;;;3.20;;
9374;SDS011;4727;51.202;6.344;2023-03-31T08:35:37;9.03;;;3.00;;
9374;SDS011;4727;51.202;6.344;2023-03-31T08:38:03;10.73;;;4.27;;
9374;SDS011;4727;51.202;6.344;2023-03-31T08:40:30;8.20;;;3.20;;
9374;SDS011;4727;51.202;6.344;2023-03-31T08:42:59;6.60;;;3.77;;
9374;SDS011;4727;51.202;6.344;2023-03-31T08:45:31;5.77;;;2.73;;
9374;SDS011;4727;51.202;6.344;2023-03-31T08:50:54;9.63;;;3.53;;
9374;SDS011;4727;51.202;6.344;2023-03-31T08:53:25;7.73;;;3.13;;
9374;SDS011;4727;51.202;6.344;2023-03-31T08:55:55;5.20;;;3.00;;
9374;SDS011;4727;51.202;6.344;2023-03-31T08:58:41;6.30;;;3.33;;
9374;SDS011;4727;51.202;6.344;2023-03-31T09:01:32;7.00;;;2.47;;
9374;SDS011;4727;51.202;6.344;2023-03-31T09:07:24;9.33;;;3.60;;
9374;SDS011;4727;51.202;6.344;2023-03-31T09:12:52;9.53;;;3.27;;
9374;SDS011;4727;51.202;6.344;2023-03-31T09:33:26;9.47;;;3.67;;
9374;SDS011;4727;51.202;6.344;2023-03-31T09:35:59;9.23;;;3.80;;
9374;SDS011;4727;51.202;6.344;2023-03-31T09:38:26;7.13;;;3.73;;
9374;SDS011;4727;51.202;6.344;2023-03-31T09:40:56;9.37;;;3.10;;
9374;SDS011;4727;51.202;6.344;2023-03-31T09:43:23;10.40;;;3.70;;
9374;SDS011;4727;51.202;6.344;2023-03-31T09:45:51;10.70;;;3.53;;
9374;SDS011;4727;51.202;6.344;2023-03-31T09:48:19;10.50;;;4.13;;
9374;SDS011;4727;51.202;6.344;2023-03-31T09:50:48;10.10;;;3.93;;
9374;SDS011;4727;51.202;6.344;2023-03-31T09:53:18;12.40;;;4.63;;
9374;SDS011;4727;51.202;6.344;2023-03-31T09:56:00;13.63;;;4.77;;
9374;SDS011;4727;51.202;6.344;2023-03-31T09:58:27;12.47;;;4.33;;
9374;SDS011;4727;51.202;6.344;2023-03-31T10:01:00;9.40;;;3.00;;
9374;SDS011;4727;51.202;6.344;2023-03-31T10:03:29;11.30;;;4.57;;
9374;SDS011;4727;51.202;6.344;2023-03-31T10:06:01;9.70;;;3.30;;
9374;SDS011;4727;51.202;6.344;2023-03-31T10:08:37;10.83;;;3.93;;
9374;SDS011;4727;51.202;6.344;2023-03-31T10:11:09;9.90;;;3.37;;
9374;SDS011;4727;51.202;6.344;2023-03-31T10:16:13;12.03;;;3.90;;
9374;SDS011;4727;51.202;6.344;2023-03-31T10:22:00;9.73;;;3.27;;
9374;SDS011;4727;51.202;6.344;2023-03-31T10:24:35;9.47;;;3.80;;
9374;SDS011;4727;51.202;6.344;2023-03-31T10:27:06;5.43;;;2.87;;
9374;SDS011;4727;51.202;6.344;2023-03-31T10:29:52;5.30;;;2.43;;
9374;SDS011;4727;51.202;6.344;2023-03-31T10:34:47;5.47;;;1.73;;
9374;SDS011;4727;51.202;6.344;2023-03-31T10:37:16;4.83;;;2.40;;
9374;SDS011;4727;51.202;6.344;2023-03-31T10:39:43;6.23;;;2.77;;
9374;SDS011;4727;51.202;6.344;2023-03-31T10:42:17;4.53;;;2.50;;
9374;SDS011;4727;51.202;6.344;2023-03-31T10:44:45;5.07;;;2.60;;
9374;SDS011;4727;51.202;6.344;2023-03-31T10:49:38;9.67;;;3.07;;
9374;SDS011;4727;51.202;6.344;2023-03-31T10:52:13;4.10;;;2.60;;
9374;SDS011;4727;51.202;6.344;2023-03-31T10:54:47;8.47;;;3.43;;
9374;SDS011;4727;51.202;6.344;2023-03-31T10:57:15;5.80;;;2.43;;
9374;SDS011;4727;51.202;6.344;2023-03-31T10:59:46;4.53;;;1.83;;
9374;SDS011;4727;51.202;6.344;2023-03-31T11:02:44;4.20;;;1.87;;
9374;SDS011;4727;51.202;6.344;2023-03-31T11:12:55;4.50;;;2.20;;
9374;SDS011;4727;51.202;6.344;2023-03-31T11:15:39;4.80;;;2.20;;
9374;SDS011;4727;51.202;6.344;2023-03-31T11:18:31;5.30;;;2.40;;
9374;SDS011;4727;51.202;6.344;2023-03-31T11:29:11;7.90;;;2.63;;
9374;SDS011;4727;51.202;6.344;2023-03-31T11:31:45;7.73;;;2.90;;
9374;SDS011;4727;51.202;6.344;2023-03-31T11:34:36;8.10;;;2.90;;
9374;SDS011;4727;51.202;6.344;2023-03-31T11:42:26;8.27;;;3.20;;
9374;SDS011;4727;51.202;6.344;2023-03-31T11:44:59;7.07;;;3.23;;
9374;SDS011;4727;51.202;6.344;2023-03-31T11:47:35;9.43;;;3.47;;
9374;SDS011;4727;51.202;6.344;2023-03-31T11:50:02;8.47;;;3.03;;
9374;SDS011;4727;51.202;6.344;2023-03-31T11:52:39;9.17;;;4.20;;
9374;SDS011;4727;51.202;6.344;2023-03-31T11:55:18;10.33;;;4.17;;
9374;SDS011;4727;51.202;6.344;2023-03-31T11:57:49;14.83;;;3.67;;
9374;SDS011;4727;51.202;6.344;2023-03-31T12:01:00;12.77;;;3.90;;
9374;SDS011;4727;51.202;6.344;2023-03-31T12:03:35;14.33;;;4.80;;
9374;SDS011;4727;51.202;6.344;2023-03-31T12:06:11;11.67;;;3.80;;
9374;SDS011;4727;51.202;6.344;2023-03-31T12:11:21;7.50;;;3.70;;
9374;SDS011;4727;51.202;6.344;2023-03-31T12:13:59;12.60;;;4.60;;
9374;SDS011;4727;51.202;6.344;2023-03-31T12:16:36;10.73;;;4.03;;
9374;SDS011;4727;51.202;6.344;2023-03-31T12:19:24;10.13;;;3.57;;
9374;SDS011;4727;51.202;6.344;2023-03-31T12:22:03;9.40;;;3.90;;
9374;SDS011;4727;51.202;6.344;2023-03-31T12:24:32;10.27;;;3.67;;
9374;SDS011;4727;51.202;6.344;2023-03-31T12:27:18;9.20;;;3.90;;
9374;SDS011;4727;51.202;6.344;2023-03-31T12:32:23;6.53;;;3.20;;
9374;SDS011;4727;51.202;6.344;2023-03-31T12:34:59;10.90;;;4.97;;
9374;SDS011;4727;51.202;6.344;2023-03-31T12:41:13;7.70;;;2.37;;
9374;SDS011;4727;51.202;6.344;2023-03-31T12:45:53;7.83;;;2.97;;
9374;SDS011;4727;51.202;6.344;2023-03-31T12:51:23;4.90;;;2.17;;
9374;SDS011;4727;51.202;6.344;2023-03-31T12:54:13;8.43;;;2.90;;
9374;SDS011;4727;51.202;6.344;2023-03-31T12:59:31;4.60;;;2.63;;
9374;SDS011;4727;51.202;6.344;2023-03-31T13:04:40;3.73;;;1.70;;
9374;SDS011;4727;51.202;6.344;2023-03-31T13:07:33;6.27;;;2.90;;
9374;SDS011;4727;51.202;6.344;2023-03-31T13:10:22;8.87;;;2.37;;
9374;SDS011;4727;51.202;6.344;2023-03-31T13:12:57;5.87;;;2.53;;
9374;SDS011;4727;51.202;6.344;2023-03-31T13:15:31;5.50;;;1.90;;
9374;SDS011;4727;51.202;6.344;2023-03-31T13:17:58;5.67;;;2.53;;
9374;SDS011;4727;51.202;6.344;2023-03-31T13:25:56;6.50;;;2.77;;
9374;SDS011;4727;51.202;6.344;2023-03-31T13:28:24;6.80;;;2.43;;
9374;SDS011;4727;51.202;6.344;2023-03-31T13:31:02;4.07;;;2.20;;
9374;SDS011;4727;51.202;6.344;2023-03-31T13:41:36;5.53;;;2.43;;
9374;SDS011;4727;51.202;6.344;2023-03-31T13:44:08;8.37;;;3.00;;
9374;SDS011;4727;51.202;6.344;2023-03-31T13:49:43;5.03;;;2.20;;
9374;SDS011;4727;51.202;6.344;2023-03-31T14:06:24;4.57;;;2.20;;
9374;SDS011;4727;51.202;6.344;2023-03-31T14:09:01;5.80;;;2.77;;
9374;SDS011;4727;51.202;6.344;2023-03-31T14:11:31;5.13;;;2.23;;
9374;SDS011;4727;51.202;6.344;2023-03-31T14:14:10;6.13;;;2.87;;
9374;SDS011;4727;51.202;6.344;2023-03-31T14:16:50;4.73;;;2.60;;
9374;SDS011;4727;51.202;6.344;2023-03-31T14:21:57;4.67;;;2.03;;
9374;SDS011;4727;51.202;6.344;2023-03-31T14:24:50;7.53;;;2.57;;
9374;SDS011;4727;51.202;6.344;2023-03-31T14:28:04;8.97;;;3.00;;
9374;SDS011;4727;51.202;6.344;2023-03-31T14:33:40;5.40;;;3.43;;
9374;SDS011;4727;51.202;6.344;2023-03-31T14:39:02;5.67;;;2.70;;
9374;SDS011;4727;51.202;6.344;2023-03-31T14:41:30;6.00;;;2.20;;
9374;SDS011;4727;51.202;6.344;2023-03-31T14:43:58;6.10;;;3.17;;
9374;SDS011;4727;51.202;6.344;2023-03-31T14:46:28;8.53;;;2.70;;
9374;SDS011;4727;51.202;6.344;2023-03-31T14:48:56;7.23;;;3.00;;
9374;SDS011;4727;51.202;6.344;2023-03-31T14:51:26;11.67;;;3.30;;
9374;SDS011;4727;51.202;6.344;2023-03-31T14:53:57;7.17;;;2.50;;
9374;SDS011;4727;51.202;6.344;2023-03-31T14:56:45;4.87;;;2.57;;
9374;SDS011;4727;51.202;6.344;2023-03-31T14:59:18;8.20;;;3.17;;
9374;SDS011;4727;51.202;6.344;2023-03-31T15:01:46;4.43;;;2.13;;
9374;SDS011;4727;51.202;6.344;2023-03-31T15:04:14;5.00;;;2.40;;
9374;SDS011;4727;51.202;6.344;2023-03-31T15:06:44;5.17;;;2.50;;
9374;SDS011;4727;51.202;6.344;2023-03-31T15:09:14;6.47;;;2.83;;
9374;SDS011;4727;51.202;6.344;2023-03-31T15:11:46;7.60;;;3.07;;
9374;SDS011;4727;51.202;6.344;2023-03-31T15:14:17;6.00;;;2.33;;
9374;SDS011;4727;51.202;6.344;2023-03-31T15:16:43;2.70;;;1.70;;
9374;SDS011;4727;51.202;6.344;2023-03-31T15:19:22;6.43;;;2.40;;
9374;SDS011;4727;51.202;6.344;2023-03-31T15:21:54;3.43;;;2.27;;
9374;SDS011;4727;51.202;6.344;2023-03-31T15:24:28;3.67;;;2.17;;
9374;SDS011;4727;51.202;6.344;2023-03-31T15:26:56;3.10;;;1.80;;
9374;SDS011;4727;51.202;6.344;2023-03-31T15:29:31;4.87;;;1.50;;
9374;SDS011;4727;51.202;6.344;2023-03-31T15:32:02;3.43;;;1.70;;
9374;SDS011;4727;51.202;6.344;2023-03-31T15:34:44;5.27;;;1.37;;
9374;SDS011;4727;51.202;6.344;2023-03-31T15:37:10;2.03;;;1.37;;
9374;SDS011;4727;51.202;6.344;2023-03-31T15:39:36;2.87;;;1.83;;
9374;SDS011;4727;51.202;6.344;2023-03-31T15:42:04;3.03;;;1.83;;
9374;SDS011;4727;51.202;6.344;2023-03-31T15:44:35;4.17;;;1.97;;
9374;SDS011;4727;51.202;6.344;2023-03-31T15:47:10;4.37;;;2.30;;
9374;SDS011;4727;51.202;6.344;2023-03-31T15:49:49;3.87;;;1.57;;
9374;SDS011;4727;51.202;6.344;2023-03-31T15:52:29;3.60;;;1.83;;
9374;SDS011;4727;51.202;6.344;2023-03-31T15:54:58;4.17;;;2.23;;
9374;SDS011;4727;51.202;6.344;2023-03-31T15:57:34;4.37;;;1.73;;
9374;SDS011;4727;51.202;6.344;2023-03-31T16:00:00;3.07;;;1.77;;
9374;SDS011;4727;51.202;6.344;2023-03-31T16:02:37;4.00;;;2.40;;
9374;SDS011;4727;51.202;6.344;2023-03-31T16:05:20;2.87;;;1.60;;
9374;SDS011;4727;51.202;6.344;2023-03-31T16:07:51;2.97;;;1.77;;
9374;SDS011;4727;51.202;6.344;2023-03-31T16:10:18;2.80;;;2.00;;
9374;SDS011;4727;51.202;6.344;2023-03-31T16:12:48;4.20;;;2.43;;
9374;SDS011;4727;51.202;6.344;2023-03-31T16:15:30;3.13;;;1.87;;
9374;SDS011;4727;51.202;6.344;2023-03-31T16:17:59;3.90;;;1.60;;
9374;SDS011;4727;51.202;6.344;2023-03-31T16:20:31;3.67;;;2.10;;
9374;SDS011;4727;51.202;6.344;2023-03-31T16:23:01;5.13;;;4.40;;
9374;SDS011;4727;51.202;6.344;2023-03-31T16:25:38;1.90;;;1.73;;
9374;SDS011;4727;51.202;6.344;2023-03-31T16:28:05;2.37;;;1.87;;
9374;SDS011;4727;51.202;6.344;2023-03-31T16:30:33;4.93;;;3.27;;
9374;SDS011;4727;51.202;6.344;2023-03-31T16:33:04;4.17;;;2.30;;
9374;SDS011;4727;51.202;6.344;2023-03-31T16:35:40;4.73;;;3.77;;
9374;SDS011;4727;51.202;6.344;2023-03-31T16:38:08;3.07;;;2.73;;
9374;SDS011;4727;51.202;6.344;2023-03-31T16:40:56;4.83;;;3.00;;
9374;SDS011;4727;51.202;6.344;2023-03-31T16:45:51;5.43;;;2.70;;
9374;SDS011;4727;51.202;6.344;2023-03-31T16:48:24;6.30;;;1.87;;
9374;SDS011;4727;51.202;6.344;2023-03-31T16:50:51;1.93;;;1.27;;
9374;SDS011;4727;51.202;6.344;2023-03-31T16:53:21;5.50;;;2.40;;
9374;SDS011;4727;51.202;6.344;2023-03-31T16:55:47;4.23;;;1.80;;
9374;SDS011;4727;51.202;6.344;2023-03-31T16:58:13;1.97;;;1.80;;
9374;SDS011;4727;51.202;6.344;2023-03-31T17:00:40;3.20;;;1.67;;
9374;SDS011;4727;51.202;6.344;2023-03-31T17:03:07;2.17;;;2.00;;
9374;SDS011;4727;51.202;6.344;2023-03-31T17:05:37;3.10;;;1.97;;
9374;SDS011;4727;51.202;6.344;2023-03-31T17:08:04;1.80;;;1.70;;
9374;SDS011;4727;51.202;6.344;2023-03-31T17:10:30;5.20;;;3.03;;
9374;SDS011;4727;51.202;6.344;2023-03-31T17:12:56;2.73;;;2.10;;
9374;SDS011;4727;51.202;6.344;2023-03-31T17:15:22;4.60;;;1.30;;
9374;SDS011;4727;51.202;6.344;2023-03-31T17:17:48;1.97;;;1.67;;
9374;SDS011;4727;51.202;6.344;2023-03-31T17:20:14;3.30;;;1.60;;
9374;SDS011;4727;51.202;6.344;2023-03-31T17:22:40;3.63;;;1.97;;
9374;SDS011;4727;51.202;6.344;2023-03-31T17:25:06;2.23;;;1.73;;
9374;SDS011;4727;51.202;6.344;2023-03-31T17:27:33;4.77;;;1.70;;
9374;SDS011;4727;51.202;6.344;2023-03-31T17:29:59;3.03;;;1.50;;
9374;SDS011;4727;51.202;6.344;2023-03-31T17:32:25;2.07;;;1.50;;
9374;SDS011;4727;51.202;6.344;2023-03-31T17:34:51;6.20;;;2.23;;
9374;SDS011;4727;51.202;6.344;2023-03-31T17:37:20;6.20;;;4.57;;
9374;SDS011;4727;51.202;6.344;2023-03-31T17:39:46;7.10;;;3.10;;
9374;SDS011;4727;51.202;6.344;2023-03-31T17:42:12;4.37;;;2.23;;
9374;SDS011;4727;51.202;6.344;2023-03-31T17:44:38;4.10;;;2.00;;
9374;SDS011;4727;51.202;6.344;2023-03-31T17:47:05;3.60;;;2.23;;
9374;SDS011;4727;51.202;6.344;2023-03-31T17:49:32;3.43;;;1.73;;
9374;SDS011;4727;51.202;6.344;2023-03-31T17:51:58;2.87;;;1.83;;
9374;SDS011;4727;51.202;6.344;2023-03-31T17:54:26;4.73;;;2.00;;
9374;SDS011;4727;51.202;6.344;2023-03-31T17:56:51;4.00;;;2.40;;
9374;SDS011;4727;51.202;6.344;2023-03-31T17:59:18;6.00;;;2.53;;
9374;SDS011;4727;51.202;6.344;2023-03-31T18:01:44;4.70;;;2.43;;
9374;SDS011;4727;51.202;6.344;2023-03-31T18:04:13;2.80;;;1.77;;
9374;SDS011;4727;51.202;6.344;2023-03-31T18:06:39;4.77;;;2.10;;
9374;SDS011;4727;51.202;6.344;2023-03-31T18:09:06;4.77;;;2.43;;
9374;SDS011;4727;51.202;6.344;2023-03-31T18:11:33;3.93;;;2.43;;
9374;SDS011;4727;51.202;6.344;2023-03-31T18:13:59;2.97;;;1.70;;
9374;SDS011;4727;51.202;6.344;2023-03-31T18:16:26;3.63;;;1.73;;
9374;SDS011;4727;51.202;6.344;2023-03-31T18:18:53;3.23;;;1.67;;
9374;SDS011;4727;51.202;6.344;2023-03-31T18:21:19;1.90;;;1.73;;
9374;SDS011;4727;51.202;6.344;2023-03-31T18:23:47;2.90;;;1.90;;
9374;SDS011;4727;51.202;6.344;2023-03-31T18:26:16;2.73;;;1.60;;
9374;SDS011;4727;51.202;6.344;2023-03-31T18:28:43;2.43;;;1.43;;
9374;SDS011;4727;51.202;6.344;2023-03-31T18:31:10;2.77;;;1.87;;
9374;SDS011;4727;51.202;6.344;2023-03-31T18:33:36;3.30;;;1.60;;
9374;SDS011;4727;51.202;6.344;2023-03-31T18:36:03;6.13;;;2.33;;
9374;SDS011;4727;51.202;6.344;2023-03-31T18:38:29;4.07;;;2.30;;
9374;SDS011;4727;51.202;6.344;2023-03-31T18:40:54;1.53;;;1.33;;
9374;SDS011;4727;51.202;6.344;2023-03-31T18:43:20;4.83;;;2.00;;
9374;SDS011;4727;51.202;6.344;2023-03-31T18:45:51;4.73;;;2.20;;
9374;SDS011;4727;51.202;6.344;2023-03-31T18:48:18;3.63;;;2.07;;
9374;SDS011;4727;51.202;6.344;2023-03-31T18:50:46;5.27;;;2.10;;
9374;SDS011;4727;51.202;6.344;2023-03-31T18:53:12;4.37;;;2.20;;
9374;SDS011;4727;51.202;6.344;2023-03-31T18:55:42;3.80;;;2.67;;
9374;SDS011;4727;51.202;6.344;2023-03-31T18:58:08;2.70;;;1.77;;
9374;SDS011;4727;51.202;6.344;2023-03-31T19:00:34;6.33;;;2.30;;
9374;SDS011;4727;51.202;6.344;2023-03-31T19:03:00;5.03;;;2.00;;
9374;SDS011;4727;51.202;6.344;2023-03-31T19:05:27;1.73;;;1.57;;
9374;SDS011;4727;51.202;6.344;2023-03-31T19:07:54;2.67;;;2.17;;
9374;SDS011;4727;51.202;6.344;2023-03-31T19:10:20;5.03;;;2.13;;
9374;SDS011;4727;51.202;6.344;2023-03-31T19:12:46;5.17;;;2.37;;
9374;SDS011;4727;51.202;6.344;2023-03-31T19:15:13;5.50;;;2.40;;
9374;SDS011;4727;51.202;6.344;2023-03-31T19:17:39;2.97;;;1.87;;
9374;SDS011;4727;51.202;6.344;2023-03-31T19:20:05;4.57;;;2.00;;
9374;SDS011;4727;51.202;6.344;2023-03-31T19:22:31;2.60;;;1.97;;
9374;SDS011;4727;51.202;6.344;2023-03-31T19:24:57;5.27;;;2.50;;
9374;SDS011;4727;51.202;6.344;2023-03-31T19:27:23;4.23;;;1.93;;
9374;SDS011;4727;51.202;6.344;2023-03-31T19:29:50;5.10;;;2.30;;